sensor_id;sensor_type;location;lat;lon;timestamp;P1;durP1;ratioP1;P2;durP2;ratioP2
20423;SDS011;10371;49.042;8.002;2023-01-13T00:00:57;3.95;;;2.30;;
20423;SDS011;10371;49.042;8.002;2023-01-13T00:01:57;3.75;;;2.38;;
20423;SDS011;10371;49.042;8.002;2023-01-13T00:02:58;2.87;;;1.83;;
20423;SDS011;10371;49.042;8.002;2023-01-13T00:03:58;3.00;;;1.67;;
20423;SDS011;10371;49.042;8.002;2023-01-13T00:05:00;2.88;;;1.60;;
20423;SDS011;10371;49.042;8.002;2023-01-13T00:06:00;3.88;;;1.98;;
20423;SDS011;10371;49.042;8.002;2023-01-13T00:07:00;4.05;;;2.00;;
20423;SDS011;10371;49.042;8.002;2023-01-13T00:08:00;3.88;;;1.90;;
20423;SDS011;10371;49.042;8.002;2023-01-13T00:09:03;5.33;;;2.40;;
20423;SDS011;10371;49.042;8.002;2023-01-13T00:10:04;2.33;;;2.03;;
20423;SDS011;10371;49.042;8.002;2023-01-13T00:11:09;2.87;;;1.60;;
20423;SDS011;10371;49.042;8.002;2023-01-13T00:12:10;1.67;;;1.57;;
20423;SDS011;10371;49.042;8.002;2023-01-13T00:13:10;1.93;;;1.50;;
20423;SDS011;10371;49.042;8.002;2023-01-13T00:14:10;3.37;;;1.30;;
20423;SDS011;10371;49.042;8.002;2023-01-13T00:15:10;2.47;;;1.60;;
20423;SDS011;10371;49.042;8.002;2023-01-13T00:16:13;2.57;;;1.63;;
20423;SDS011;10371;49.042;8.002;2023-01-13T00:17:16;2.45;;;1.65;;
20423;SDS011;10371;49.042;8.002;2023-01-13T00:18:16;4.60;;;2.40;;
20423;SDS011;10371;49.042;8.002;2023-01-13T00:19:16;2.03;;;1.80;;
20423;SDS011;10371;49.042;8.002;2023-01-13T00:20:17;2.63;;;1.60;;
20423;SDS011;10371;49.042;8.002;2023-01-13T00:21:21;2.95;;;1.45;;
20423;SDS011;10371;49.042;8.002;2023-01-13T00:22:23;4.27;;;1.60;;
20423;SDS011;10371;49.042;8.002;2023-01-13T00:23:23;2.67;;;1.50;;
20423;SDS011;10371;49.042;8.002;2023-01-13T00:24:23;1.80;;;1.50;;
20423;SDS011;10371;49.042;8.002;2023-01-13T00:25:24;2.10;;;1.37;;
20423;SDS011;10371;49.042;8.002;2023-01-13T00:26:26;3.13;;;1.77;;
20423;SDS011;10371;49.042;8.002;2023-01-13T00:27:29;3.10;;;1.77;;
20423;SDS011;10371;49.042;8.002;2023-01-13T00:28:30;3.78;;;2.17;;
20423;SDS011;10371;49.042;8.002;2023-01-13T00:29:31;3.63;;;2.70;;
20423;SDS011;10371;49.042;8.002;2023-01-13T00:30:31;3.05;;;2.17;;
20423;SDS011;10371;49.042;8.002;2023-01-13T00:31:33;2.37;;;2.00;;
20423;SDS011;10371;49.042;8.002;2023-01-13T00:32:33;2.72;;;1.70;;
20423;SDS011;10371;49.042;8.002;2023-01-13T00:33:33;2.83;;;1.50;;
20423;SDS011;10371;49.042;8.002;2023-01-13T00:34:34;2.40;;;1.50;;
20423;SDS011;10371;49.042;8.002;2023-01-13T00:35:34;2.30;;;1.75;;
20423;SDS011;10371;49.042;8.002;2023-01-13T00:36:35;3.10;;;1.63;;
20423;SDS011;10371;49.042;8.002;2023-01-13T00:37:35;2.42;;;1.70;;
20423;SDS011;10371;49.042;8.002;2023-01-13T00:38:37;1.70;;;1.60;;
20423;SDS011;10371;49.042;8.002;2023-01-13T00:39:38;2.38;;;1.45;;
20423;SDS011;10371;49.042;8.002;2023-01-13T00:40:38;2.67;;;1.67;;
20423;SDS011;10371;49.042;8.002;2023-01-13T00:41:38;2.73;;;1.50;;
20423;SDS011;10371;49.042;8.002;2023-01-13T00:42:57;2.10;;;1.63;;
20423;SDS011;10371;49.042;8.002;2023-01-13T00:44:16;1.50;;;1.40;;
20423;SDS011;10371;49.042;8.002;2023-01-13T00:45:16;2.43;;;1.53;;
20423;SDS011;10371;49.042;8.002;2023-01-13T00:46:18;3.50;;;2.00;;
20423;SDS011;10371;49.042;8.002;2023-01-13T00:47:20;2.97;;;1.88;;
20423;SDS011;10371;49.042;8.002;2023-01-13T00:48:21;2.83;;;1.80;;
20423;SDS011;10371;49.042;8.002;2023-01-13T00:49:22;2.60;;;1.80;;
20423;SDS011;10371;49.042;8.002;2023-01-13T00:50:23;3.37;;;2.17;;
20423;SDS011;10371;49.042;8.002;2023-01-13T00:51:23;3.30;;;1.83;;
20423;SDS011;10371;49.042;8.002;2023-01-13T00:52:24;3.77;;;1.93;;
20423;SDS011;10371;49.042;8.002;2023-01-13T00:53:24;4.03;;;2.10;;
20423;SDS011;10371;49.042;8.002;2023-01-13T00:54:25;3.43;;;2.00;;
20423;SDS011;10371;49.042;8.002;2023-01-13T00:55:26;4.20;;;2.20;;
20423;SDS011;10371;49.042;8.002;2023-01-13T00:56:29;3.10;;;1.77;;
20423;SDS011;10371;49.042;8.002;2023-01-13T00:57:29;4.73;;;2.00;;
20423;SDS011;10371;49.042;8.002;2023-01-13T00:58:30;5.37;;;2.07;;
20423;SDS011;10371;49.042;8.002;2023-01-13T00:59:31;3.97;;;1.93;;
20423;SDS011;10371;49.042;8.002;2023-01-13T01:00:32;2.37;;;1.60;;
20423;SDS011;10371;49.042;8.002;2023-01-13T01:01:32;2.73;;;1.70;;
20423;SDS011;10371;49.042;8.002;2023-01-13T01:02:32;3.70;;;1.80;;
20423;SDS011;10371;49.042;8.002;2023-01-13T01:03:33;2.00;;;1.53;;
20423;SDS011;10371;49.042;8.002;2023-01-13T01:04:34;2.20;;;1.70;;
20423;SDS011;10371;49.042;8.002;2023-01-13T01:05:34;2.20;;;1.67;;
20423;SDS011;10371;49.042;8.002;2023-01-13T01:06:34;4.47;;;1.73;;
20423;SDS011;10371;49.042;8.002;2023-01-13T01:07:35;6.13;;;2.00;;
20423;SDS011;10371;49.042;8.002;2023-01-13T01:08:35;4.70;;;1.90;;
20423;SDS011;10371;49.042;8.002;2023-01-13T01:09:35;3.17;;;1.60;;
20423;SDS011;10371;49.042;8.002;2023-01-13T01:10:39;5.10;;;2.07;;
20423;SDS011;10371;49.042;8.002;2023-01-13T01:11:39;2.77;;;1.80;;
20423;SDS011;10371;49.042;8.002;2023-01-13T01:12:40;2.37;;;1.77;;
20423;SDS011;10371;49.042;8.002;2023-01-13T01:13:41;3.00;;;1.70;;
20423;SDS011;10371;49.042;8.002;2023-01-13T01:14:42;4.07;;;1.57;;
20423;SDS011;10371;49.042;8.002;2023-01-13T01:15:43;2.47;;;1.40;;
20423;SDS011;10371;49.042;8.002;2023-01-13T01:16:43;2.47;;;1.40;;
20423;SDS011;10371;49.042;8.002;2023-01-13T01:17:43;2.63;;;1.43;;
20423;SDS011;10371;49.042;8.002;2023-01-13T01:18:45;1.93;;;1.40;;
20423;SDS011;10371;49.042;8.002;2023-01-13T01:19:46;1.93;;;1.27;;
20423;SDS011;10371;49.042;8.002;2023-01-13T01:20:46;3.07;;;1.57;;
20423;SDS011;10371;49.042;8.002;2023-01-13T01:21:47;2.73;;;1.57;;
20423;SDS011;10371;49.042;8.002;2023-01-13T01:22:47;2.73;;;1.60;;
20423;SDS011;10371;49.042;8.002;2023-01-13T01:23:47;2.70;;;1.70;;
20423;SDS011;10371;49.042;8.002;2023-01-13T01:24:48;2.37;;;1.40;;
20423;SDS011;10371;49.042;8.002;2023-01-13T01:25:48;1.97;;;1.30;;
20423;SDS011;10371;49.042;8.002;2023-01-13T01:26:48;2.53;;;1.20;;
20423;SDS011;10371;49.042;8.002;2023-01-13T01:27:49;2.40;;;1.37;;
20423;SDS011;10371;49.042;8.002;2023-01-13T01:28:49;1.90;;;1.10;;
20423;SDS011;10371;49.042;8.002;2023-01-13T01:29:50;2.77;;;1.53;;
20423;SDS011;10371;49.042;8.002;2023-01-13T01:30:51;1.40;;;1.07;;
20423;SDS011;10371;49.042;8.002;2023-01-13T01:31:53;1.73;;;1.20;;
20423;SDS011;10371;49.042;8.002;2023-01-13T01:32:55;1.83;;;1.10;;
20423;SDS011;10371;49.042;8.002;2023-01-13T01:33:56;1.27;;;1.17;;
20423;SDS011;10371;49.042;8.002;2023-01-13T01:34:57;2.00;;;1.10;;
20423;SDS011;10371;49.042;8.002;2023-01-13T01:35:57;2.97;;;1.20;;
20423;SDS011;10371;49.042;8.002;2023-01-13T01:37:00;1.63;;;1.20;;
20423;SDS011;10371;49.042;8.002;2023-01-13T01:38:00;2.70;;;1.13;;
20423;SDS011;10371;49.042;8.002;2023-01-13T01:39:00;2.03;;;1.17;;
20423;SDS011;10371;49.042;8.002;2023-01-13T01:40:01;3.07;;;1.00;;
20423;SDS011;10371;49.042;8.002;2023-01-13T01:41:01;2.07;;;1.20;;
20423;SDS011;10371;49.042;8.002;2023-01-13T01:42:02;1.30;;;1.10;;
20423;SDS011;10371;49.042;8.002;2023-01-13T01:43:22;1.57;;;1.03;;
20423;SDS011;10371;49.042;8.002;2023-01-13T01:45:02;1.70;;;1.20;;
20423;SDS011;10371;49.042;8.002;2023-01-13T01:46:12;1.33;;;1.10;;
20423;SDS011;10371;49.042;8.002;2023-01-13T01:47:13;1.00;;;0.90;;
20423;SDS011;10371;49.042;8.002;2023-01-13T01:48:17;1.50;;;1.20;;
20423;SDS011;10371;49.042;8.002;2023-01-13T01:49:28;2.57;;;1.20;;
20423;SDS011;10371;49.042;8.002;2023-01-13T01:50:32;3.97;;;1.20;;
20423;SDS011;10371;49.042;8.002;2023-01-13T01:51:36;1.30;;;1.00;;
20423;SDS011;10371;49.042;8.002;2023-01-13T01:52:41;2.27;;;1.33;;
20423;SDS011;10371;49.042;8.002;2023-01-13T01:53:45;1.63;;;1.00;;
20423;SDS011;10371;49.042;8.002;2023-01-13T01:54:50;1.93;;;1.00;;
20423;SDS011;10371;49.042;8.002;2023-01-13T01:55:59;1.63;;;1.40;;
20423;SDS011;10371;49.042;8.002;2023-01-13T01:57:00;1.47;;;1.00;;
20423;SDS011;10371;49.042;8.002;2023-01-13T01:58:01;1.87;;;1.10;;
20423;SDS011;10371;49.042;8.002;2023-01-13T01:59:03;1.93;;;0.80;;
20423;SDS011;10371;49.042;8.002;2023-01-13T02:00:03;2.42;;;1.20;;
20423;SDS011;10371;49.042;8.002;2023-01-13T02:01:04;1.10;;;1.00;;
20423;SDS011;10371;49.042;8.002;2023-01-13T02:02:05;2.47;;;1.00;;
20423;SDS011;10371;49.042;8.002;2023-01-13T02:03:06;1.07;;;0.90;;
20423;SDS011;10371;49.042;8.002;2023-01-13T02:04:10;1.80;;;1.10;;
20423;SDS011;10371;49.042;8.002;2023-01-13T02:05:14;1.70;;;1.07;;
20423;SDS011;10371;49.042;8.002;2023-01-13T02:06:15;1.87;;;1.20;;
20423;SDS011;10371;49.042;8.002;2023-01-13T02:07:26;1.70;;;0.90;;
20423;SDS011;10371;49.042;8.002;2023-01-13T02:08:29;1.83;;;1.13;;
20423;SDS011;10371;49.042;8.002;2023-01-13T02:09:30;4.20;;;1.30;;
20423;SDS011;10371;49.042;8.002;2023-01-13T02:10:31;1.30;;;1.00;;
20423;SDS011;10371;49.042;8.002;2023-01-13T02:11:33;1.80;;;1.17;;
20423;SDS011;10371;49.042;8.002;2023-01-13T02:12:54;3.20;;;0.97;;
20423;SDS011;10371;49.042;8.002;2023-01-13T02:13:58;1.80;;;1.10;;
20423;SDS011;10371;49.042;8.002;2023-01-13T02:14:59;1.20;;;1.10;;
20423;SDS011;10371;49.042;8.002;2023-01-13T02:16:12;2.08;;;0.98;;
20423;SDS011;10371;49.042;8.002;2023-01-13T02:22:22;1.83;;;0.97;;
20423;SDS011;10371;49.042;8.002;2023-01-13T02:25:15;1.33;;;1.20;;
20423;SDS011;10371;49.042;8.002;2023-01-13T02:30:48;1.47;;;1.00;;
20423;SDS011;10371;49.042;8.002;2023-01-13T02:34:11;0.93;;;0.83;;
20423;SDS011;10371;49.042;8.002;2023-01-13T02:37:58;1.37;;;0.97;;
20423;SDS011;10371;49.042;8.002;2023-01-13T02:39:07;1.10;;;1.00;;
20423;SDS011;10371;49.042;8.002;2023-01-13T02:41:41;1.77;;;1.00;;
20423;SDS011;10371;49.042;8.002;2023-01-13T02:43:07;1.27;;;1.03;;
20423;SDS011;10371;49.042;8.002;2023-01-13T02:44:30;1.13;;;0.83;;
20423;SDS011;10371;49.042;8.002;2023-01-13T02:45:48;1.67;;;1.00;;
20423;SDS011;10371;49.042;8.002;2023-01-13T02:47:57;1.03;;;0.87;;
20423;SDS011;10371;49.042;8.002;2023-01-13T02:49:02;2.33;;;0.87;;
20423;SDS011;10371;49.042;8.002;2023-01-13T02:50:09;1.17;;;1.07;;
20423;SDS011;10371;49.042;8.002;2023-01-13T02:51:14;1.00;;;1.00;;
20423;SDS011;10371;49.042;8.002;2023-01-13T02:52:22;1.27;;;1.07;;
20423;SDS011;10371;49.042;8.002;2023-01-13T02:53:34;2.37;;;0.90;;
20423;SDS011;10371;49.042;8.002;2023-01-13T02:54:41;1.80;;;0.70;;
20423;SDS011;10371;49.042;8.002;2023-01-13T02:55:47;1.70;;;0.90;;
20423;SDS011;10371;49.042;8.002;2023-01-13T02:56:51;0.93;;;0.80;;
20423;SDS011;10371;49.042;8.002;2023-01-13T02:57:55;1.33;;;1.15;;
20423;SDS011;10371;49.042;8.002;2023-01-13T02:58:58;0.90;;;0.90;;
20423;SDS011;10371;49.042;8.002;2023-01-13T02:59:59;0.77;;;0.77;;
20423;SDS011;10371;49.042;8.002;2023-01-13T03:01:01;1.57;;;0.90;;
20423;SDS011;10371;49.042;8.002;2023-01-13T03:02:01;1.03;;;0.70;;
20423;SDS011;10371;49.042;8.002;2023-01-13T03:03:03;1.92;;;0.90;;
20423;SDS011;10371;49.042;8.002;2023-01-13T03:04:13;1.63;;;1.05;;
20423;SDS011;10371;49.042;8.002;2023-01-13T03:05:34;1.50;;;0.70;;
20423;SDS011;10371;49.042;8.002;2023-01-13T03:06:38;1.00;;;0.90;;
20423;SDS011;10371;49.042;8.002;2023-01-13T03:11:49;1.20;;;0.67;;
20423;SDS011;10371;49.042;8.002;2023-01-13T03:15:30;1.40;;;0.90;;
20423;SDS011;10371;49.042;8.002;2023-01-13T03:18:29;1.40;;;0.90;;
20423;SDS011;10371;49.042;8.002;2023-01-13T03:20:02;1.43;;;1.00;;
20423;SDS011;10371;49.042;8.002;2023-01-13T03:21:06;0.80;;;0.80;;
20423;SDS011;10371;49.042;8.002;2023-01-13T03:22:17;1.00;;;0.80;;
20423;SDS011;10371;49.042;8.002;2023-01-13T03:23:29;0.97;;;0.97;;
20423;SDS011;10371;49.042;8.002;2023-01-13T03:25:49;0.80;;;0.80;;
20423;SDS011;10371;49.042;8.002;2023-01-13T03:28:09;1.10;;;0.80;;
20423;SDS011;10371;49.042;8.002;2023-01-13T03:29:26;0.63;;;0.63;;
20423;SDS011;10371;49.042;8.002;2023-01-13T03:30:36;0.85;;;0.82;;
20423;SDS011;10371;49.042;8.002;2023-01-13T03:31:55;0.83;;;0.80;;
20423;SDS011;10371;49.042;8.002;2023-01-13T03:33:34;0.70;;;0.70;;
20423;SDS011;10371;49.042;8.002;2023-01-13T03:34:47;0.63;;;0.63;;
20423;SDS011;10371;49.042;8.002;2023-01-13T03:35:51;0.90;;;0.90;;
20423;SDS011;10371;49.042;8.002;2023-01-13T03:36:54;0.60;;;0.60;;
20423;SDS011;10371;49.042;8.002;2023-01-13T03:38:04;0.80;;;0.80;;
20423;SDS011;10371;49.042;8.002;2023-01-13T03:39:11;1.03;;;0.87;;
20423;SDS011;10371;49.042;8.002;2023-01-13T03:40:23;0.93;;;0.77;;
20423;SDS011;10371;49.042;8.002;2023-01-13T03:42:32;1.03;;;0.60;;
20423;SDS011;10371;49.042;8.002;2023-01-13T03:43:36;1.27;;;0.75;;
20423;SDS011;10371;49.042;8.002;2023-01-13T03:45:09;0.80;;;0.80;;
20423;SDS011;10371;49.042;8.002;2023-01-13T03:46:19;0.65;;;0.65;;
20423;SDS011;10371;49.042;8.002;2023-01-13T03:48:40;1.40;;;0.83;;
20423;SDS011;10371;49.042;8.002;2023-01-13T03:51:14;0.50;;;0.50;;
20423;SDS011;10371;49.042;8.002;2023-01-13T03:52:18;0.95;;;0.60;;
20423;SDS011;10371;49.042;8.002;2023-01-13T03:53:31;0.70;;;0.55;;
20423;SDS011;10371;49.042;8.002;2023-01-13T03:54:40;2.40;;;0.80;;
20423;SDS011;10371;49.042;8.002;2023-01-13T03:55:48;0.60;;;0.60;;
20423;SDS011;10371;49.042;8.002;2023-01-13T03:56:56;0.88;;;0.60;;
20423;SDS011;10371;49.042;8.002;2023-01-13T03:58:10;0.77;;;0.77;;
20423;SDS011;10371;49.042;8.002;2023-01-13T03:59:16;1.55;;;0.93;;
20423;SDS011;10371;49.042;8.002;2023-01-13T04:00:24;1.73;;;0.70;;
20423;SDS011;10371;49.042;8.002;2023-01-13T04:02:13;0.60;;;0.60;;
20423;SDS011;10371;49.042;8.002;2023-01-13T04:03:09;1.57;;;1.00;;
20423;SDS011;10371;49.042;8.002;2023-01-13T04:04:15;3.03;;;0.80;;
20423;SDS011;10371;49.042;8.002;2023-01-13T04:05:21;1.70;;;1.00;;
20423;SDS011;10371;49.042;8.002;2023-01-13T04:07:50;0.70;;;0.63;;
20423;SDS011;10371;49.042;8.002;2023-01-13T04:09:01;0.73;;;0.73;;
20423;SDS011;10371;49.042;8.002;2023-01-13T04:10:08;0.80;;;0.65;;
20423;SDS011;10371;49.042;8.002;2023-01-13T04:11:26;0.77;;;0.70;;
20423;SDS011;10371;49.042;8.002;2023-01-13T04:12:34;0.90;;;0.90;;
20423;SDS011;10371;49.042;8.002;2023-01-13T04:13:58;1.02;;;0.70;;
20423;SDS011;10371;49.042;8.002;2023-01-13T04:15:01;0.77;;;0.77;;
20423;SDS011;10371;49.042;8.002;2023-01-13T04:16:02;1.90;;;0.90;;
20423;SDS011;10371;49.042;8.002;2023-01-13T04:17:06;1.48;;;0.80;;
20423;SDS011;10371;49.042;8.002;2023-01-13T04:19:16;0.95;;;0.63;;
20423;SDS011;10371;49.042;8.002;2023-01-13T04:20:16;0.50;;;0.50;;
20423;SDS011;10371;49.042;8.002;2023-01-13T04:21:17;1.40;;;0.90;;
20423;SDS011;10371;49.042;8.002;2023-01-13T04:22:17;1.10;;;0.80;;
20423;SDS011;10371;49.042;8.002;2023-01-13T04:23:18;0.65;;;0.65;;
20423;SDS011;10371;49.042;8.002;2023-01-13T04:24:19;0.70;;;0.70;;
20423;SDS011;10371;49.042;8.002;2023-01-13T04:25:19;1.23;;;0.63;;
20423;SDS011;10371;49.042;8.002;2023-01-13T04:26:19;1.53;;;0.80;;
20423;SDS011;10371;49.042;8.002;2023-01-13T04:27:22;1.05;;;0.60;;
20423;SDS011;10371;49.042;8.002;2023-01-13T04:28:22;1.47;;;0.70;;
20423;SDS011;10371;49.042;8.002;2023-01-13T04:29:23;1.40;;;0.80;;
20423;SDS011;10371;49.042;8.002;2023-01-13T04:30:24;0.93;;;0.60;;
20423;SDS011;10371;49.042;8.002;2023-01-13T04:31:24;0.63;;;0.60;;
20423;SDS011;10371;49.042;8.002;2023-01-13T04:32:24;0.93;;;0.70;;
20423;SDS011;10371;49.042;8.002;2023-01-13T04:33:25;1.23;;;0.80;;
20423;SDS011;10371;49.042;8.002;2023-01-13T04:34:25;1.88;;;1.00;;
20423;SDS011;10371;49.042;8.002;2023-01-13T04:35:25;1.35;;;0.90;;
20423;SDS011;10371;49.042;8.002;2023-01-13T04:36:26;1.10;;;0.97;;
20423;SDS011;10371;49.042;8.002;2023-01-13T04:37:28;1.30;;;0.93;;
20423;SDS011;10371;49.042;8.002;2023-01-13T04:38:29;1.80;;;0.97;;
20423;SDS011;10371;49.042;8.002;2023-01-13T04:39:29;1.10;;;0.80;;
20423;SDS011;10371;49.042;8.002;2023-01-13T04:40:29;1.73;;;1.27;;
20423;SDS011;10371;49.042;8.002;2023-01-13T04:41:30;1.75;;;1.20;;
20423;SDS011;10371;49.042;8.002;2023-01-13T04:42:53;1.45;;;1.08;;
20423;SDS011;10371;49.042;8.002;2023-01-13T04:43:53;2.00;;;1.03;;
20423;SDS011;10371;49.042;8.002;2023-01-13T04:44:54;2.03;;;1.40;;
20423;SDS011;10371;49.042;8.002;2023-01-13T04:45:55;1.98;;;1.55;;
20423;SDS011;10371;49.042;8.002;2023-01-13T04:46:56;4.90;;;2.77;;
20423;SDS011;10371;49.042;8.002;2023-01-13T04:47:57;5.27;;;2.50;;
20423;SDS011;10371;49.042;8.002;2023-01-13T04:48:57;3.53;;;2.30;;
20423;SDS011;10371;49.042;8.002;2023-01-13T04:49:58;2.83;;;2.13;;
20423;SDS011;10371;49.042;8.002;2023-01-13T04:50:58;5.45;;;3.72;;
20423;SDS011;10371;49.042;8.002;2023-01-13T04:51:58;2.80;;;2.30;;
20423;SDS011;10371;49.042;8.002;2023-01-13T04:52:59;4.50;;;2.75;;
20423;SDS011;10371;49.042;8.002;2023-01-13T04:54:02;3.07;;;2.60;;
20423;SDS011;10371;49.042;8.002;2023-01-13T04:55:02;3.43;;;2.63;;
20423;SDS011;10371;49.042;8.002;2023-01-13T04:56:03;3.85;;;2.50;;
20423;SDS011;10371;49.042;8.002;2023-01-13T04:57:03;3.57;;;2.90;;
20423;SDS011;10371;49.042;8.002;2023-01-13T04:58:08;3.00;;;2.00;;
20423;SDS011;10371;49.042;8.002;2023-01-13T04:59:09;2.30;;;1.47;;
20423;SDS011;10371;49.042;8.002;2023-01-13T05:00:11;2.15;;;1.88;;
20423;SDS011;10371;49.042;8.002;2023-01-13T05:01:13;4.67;;;2.80;;
20423;SDS011;10371;49.042;8.002;2023-01-13T05:02:13;2.78;;;1.95;;
20423;SDS011;10371;49.042;8.002;2023-01-13T05:03:18;4.45;;;3.40;;
20423;SDS011;10371;49.042;8.002;2023-01-13T05:04:19;4.77;;;2.27;;
20423;SDS011;10371;49.042;8.002;2023-01-13T05:05:19;3.47;;;2.47;;
20423;SDS011;10371;49.042;8.002;2023-01-13T05:06:19;4.25;;;3.88;;
20423;SDS011;10371;49.042;8.002;2023-01-13T05:07:19;5.57;;;5.18;;
20423;SDS011;10371;49.042;8.002;2023-01-13T05:08:20;1.93;;;1.83;;
20423;SDS011;10371;49.042;8.002;2023-01-13T05:09:20;1.60;;;1.40;;
20423;SDS011;10371;49.042;8.002;2023-01-13T05:10:20;1.80;;;1.20;;
20423;SDS011;10371;49.042;8.002;2023-01-13T05:11:21;1.30;;;1.20;;
20423;SDS011;10371;49.042;8.002;2023-01-13T05:12:40;1.50;;;1.20;;
20423;SDS011;10371;49.042;8.002;2023-01-13T05:13:59;1.25;;;1.10;;
20423;SDS011;10371;49.042;8.002;2023-01-13T05:15:18;0.97;;;0.80;;
20423;SDS011;10371;49.042;8.002;2023-01-13T05:16:37;1.70;;;1.33;;
20423;SDS011;10371;49.042;8.002;2023-01-13T05:17:56;1.33;;;1.20;;
20423;SDS011;10371;49.042;8.002;2023-01-13T05:18:57;1.70;;;1.30;;
20423;SDS011;10371;49.042;8.002;2023-01-13T05:19:57;2.30;;;1.20;;
20423;SDS011;10371;49.042;8.002;2023-01-13T05:20:57;2.13;;;1.30;;
20423;SDS011;10371;49.042;8.002;2023-01-13T05:21:58;1.60;;;1.50;;
20423;SDS011;10371;49.042;8.002;2023-01-13T05:23:17;3.03;;;1.10;;
20423;SDS011;10371;49.042;8.002;2023-01-13T05:24:36;1.13;;;1.10;;
20423;SDS011;10371;49.042;8.002;2023-01-13T05:25:55;1.70;;;1.20;;
20423;SDS011;10371;49.042;8.002;2023-01-13T05:26:55;1.93;;;1.27;;
20423;SDS011;10371;49.042;8.002;2023-01-13T05:27:56;2.83;;;1.50;;
20423;SDS011;10371;49.042;8.002;2023-01-13T05:28:58;1.63;;;1.30;;
20423;SDS011;10371;49.042;8.002;2023-01-13T05:29:59;2.50;;;1.20;;
20423;SDS011;10371;49.042;8.002;2023-01-13T05:30:59;2.95;;;1.20;;
20423;SDS011;10371;49.042;8.002;2023-01-13T05:32:00;2.87;;;1.40;;
20423;SDS011;10371;49.042;8.002;2023-01-13T05:33:01;2.50;;;1.60;;
20423;SDS011;10371;49.042;8.002;2023-01-13T05:34:01;2.13;;;1.30;;
20423;SDS011;10371;49.042;8.002;2023-01-13T05:35:02;1.88;;;1.10;;
20423;SDS011;10371;49.042;8.002;2023-01-13T05:36:02;2.38;;;1.65;;
20423;SDS011;10371;49.042;8.002;2023-01-13T05:37:03;1.30;;;1.20;;
20423;SDS011;10371;49.042;8.002;2023-01-13T05:38:06;1.10;;;1.10;;
20423;SDS011;10371;49.042;8.002;2023-01-13T05:39:07;1.67;;;1.30;;
20423;SDS011;10371;49.042;8.002;2023-01-13T05:40:07;1.47;;;1.37;;
20423;SDS011;10371;49.042;8.002;2023-01-13T05:41:28;1.10;;;1.10;;
20423;SDS011;10371;49.042;8.002;2023-01-13T05:42:46;2.05;;;1.40;;
20423;SDS011;10371;49.042;8.002;2023-01-13T05:44:05;2.63;;;1.42;;
20423;SDS011;10371;49.042;8.002;2023-01-13T05:45:05;1.60;;;1.50;;
20423;SDS011;10371;49.042;8.002;2023-01-13T05:46:07;1.65;;;1.50;;
20423;SDS011;10371;49.042;8.002;2023-01-13T05:47:09;1.75;;;1.38;;
20423;SDS011;10371;49.042;8.002;2023-01-13T05:48:09;2.72;;;1.50;;
20423;SDS011;10371;49.042;8.002;2023-01-13T05:49:09;2.70;;;1.33;;
20423;SDS011;10371;49.042;8.002;2023-01-13T05:50:10;3.45;;;1.35;;
20423;SDS011;10371;49.042;8.002;2023-01-13T05:51:11;2.53;;;1.15;;
20423;SDS011;10371;49.042;8.002;2023-01-13T05:52:12;2.05;;;1.33;;
20423;SDS011;10371;49.042;8.002;2023-01-13T05:53:12;2.13;;;1.30;;
20423;SDS011;10371;49.042;8.002;2023-01-13T05:54:12;1.50;;;1.00;;
20423;SDS011;10371;49.042;8.002;2023-01-13T05:55:12;1.50;;;1.40;;
20423;SDS011;10371;49.042;8.002;2023-01-13T05:56:13;1.30;;;1.20;;
20423;SDS011;10371;49.042;8.002;2023-01-13T05:57:16;1.43;;;1.30;;
20423;SDS011;10371;49.042;8.002;2023-01-13T05:58:17;1.33;;;1.23;;
20423;SDS011;10371;49.042;8.002;2023-01-13T05:59:18;1.73;;;1.20;;
20423;SDS011;10371;49.042;8.002;2023-01-13T06:00:18;1.83;;;1.40;;
20423;SDS011;10371;49.042;8.002;2023-01-13T06:01:19;1.55;;;1.40;;
20423;SDS011;10371;49.042;8.002;2023-01-13T06:02:19;1.75;;;1.10;;
20423;SDS011;10371;49.042;8.002;2023-01-13T06:03:19;1.50;;;1.30;;
20423;SDS011;10371;49.042;8.002;2023-01-13T06:04:20;2.20;;;1.30;;
20423;SDS011;10371;49.042;8.002;2023-01-13T06:05:20;3.33;;;1.45;;
20423;SDS011;10371;49.042;8.002;2023-01-13T06:06:20;2.25;;;1.42;;
20423;SDS011;10371;49.042;8.002;2023-01-13T06:07:20;2.05;;;1.38;;
20423;SDS011;10371;49.042;8.002;2023-01-13T06:08:21;2.65;;;1.17;;
20423;SDS011;10371;49.042;8.002;2023-01-13T06:09:21;2.25;;;1.45;;
20423;SDS011;10371;49.042;8.002;2023-01-13T06:10:21;1.25;;;1.00;;
20423;SDS011;10371;49.042;8.002;2023-01-13T06:11:22;1.15;;;1.02;;
20423;SDS011;10371;49.042;8.002;2023-01-13T06:12:22;1.42;;;1.33;;
20423;SDS011;10371;49.042;8.002;2023-01-13T06:13:22;1.92;;;1.40;;
20423;SDS011;10371;49.042;8.002;2023-01-13T06:14:24;2.77;;;1.40;;
20423;SDS011;10371;49.042;8.002;2023-01-13T06:15:24;1.93;;;1.60;;
20423;SDS011;10371;49.042;8.002;2023-01-13T06:16:24;1.50;;;1.30;;
20423;SDS011;10371;49.042;8.002;2023-01-13T06:17:25;2.27;;;1.30;;
20423;SDS011;10371;49.042;8.002;2023-01-13T06:18:25;2.57;;;1.17;;
20423;SDS011;10371;49.042;8.002;2023-01-13T06:19:26;2.10;;;1.40;;
20423;SDS011;10371;49.042;8.002;2023-01-13T06:20:26;2.03;;;1.60;;
20423;SDS011;10371;49.042;8.002;2023-01-13T06:21:27;2.10;;;1.43;;
20423;SDS011;10371;49.042;8.002;2023-01-13T06:22:28;1.30;;;1.17;;
20423;SDS011;10371;49.042;8.002;2023-01-13T06:23:34;2.03;;;1.30;;
20423;SDS011;10371;49.042;8.002;2023-01-13T06:24:37;3.07;;;1.80;;
20423;SDS011;10371;49.042;8.002;2023-01-13T06:25:57;3.53;;;1.93;;
20423;SDS011;10371;49.042;8.002;2023-01-13T06:27:03;2.47;;;1.50;;
20423;SDS011;10371;49.042;8.002;2023-01-13T06:28:04;4.63;;;1.37;;
20423;SDS011;10371;49.042;8.002;2023-01-13T06:29:05;2.73;;;2.10;;
20423;SDS011;10371;49.042;8.002;2023-01-13T06:30:07;5.15;;;2.10;;
20423;SDS011;10371;49.042;8.002;2023-01-13T06:31:08;2.90;;;2.17;;
20423;SDS011;10371;49.042;8.002;2023-01-13T06:32:17;3.47;;;2.30;;
20423;SDS011;10371;49.042;8.002;2023-01-13T06:33:24;3.27;;;2.70;;
20423;SDS011;10371;49.042;8.002;2023-01-13T06:34:29;3.30;;;2.20;;
20423;SDS011;10371;49.042;8.002;2023-01-13T06:35:30;2.70;;;2.20;;
20423;SDS011;10371;49.042;8.002;2023-01-13T06:36:40;4.10;;;2.00;;
20423;SDS011;10371;49.042;8.002;2023-01-13T06:37:43;3.73;;;2.30;;
20423;SDS011;10371;49.042;8.002;2023-01-13T06:38:45;2.10;;;1.90;;
20423;SDS011;10371;49.042;8.002;2023-01-13T06:39:48;2.87;;;2.30;;
20423;SDS011;10371;49.042;8.002;2023-01-13T06:40:48;2.17;;;1.60;;
20423;SDS011;10371;49.042;8.002;2023-01-13T06:41:49;3.03;;;1.60;;
20423;SDS011;10371;49.042;8.002;2023-01-13T06:43:10;2.20;;;1.50;;
20423;SDS011;10371;49.042;8.002;2023-01-13T06:44:16;1.87;;;1.60;;
20423;SDS011;10371;49.042;8.002;2023-01-13T06:45:18;1.73;;;1.43;;
20423;SDS011;10371;49.042;8.002;2023-01-13T06:46:19;2.93;;;1.40;;
20423;SDS011;10371;49.042;8.002;2023-01-13T06:47:19;1.23;;;1.10;;
20423;SDS011;10371;49.042;8.002;2023-01-13T06:48:25;2.10;;;1.20;;
20423;SDS011;10371;49.042;8.002;2023-01-13T06:49:31;2.00;;;1.20;;
20423;SDS011;10371;49.042;8.002;2023-01-13T06:50:32;1.63;;;1.38;;
20423;SDS011;10371;49.042;8.002;2023-01-13T06:51:32;1.75;;;1.50;;
20423;SDS011;10371;49.042;8.002;2023-01-13T06:52:32;1.88;;;1.40;;
20423;SDS011;10371;49.042;8.002;2023-01-13T06:53:32;1.63;;;1.42;;
20423;SDS011;10371;49.042;8.002;2023-01-13T06:54:33;2.25;;;1.58;;
20423;SDS011;10371;49.042;8.002;2023-01-13T06:55:33;2.03;;;1.48;;
20423;SDS011;10371;49.042;8.002;2023-01-13T06:56:33;1.50;;;1.40;;
20423;SDS011;10371;49.042;8.002;2023-01-13T06:57:34;2.33;;;1.30;;
20423;SDS011;10371;49.042;8.002;2023-01-13T06:58:34;1.77;;;1.20;;
20423;SDS011;10371;49.042;8.002;2023-01-13T06:59:34;1.27;;;0.90;;
20423;SDS011;10371;49.042;8.002;2023-01-13T07:00:35;1.20;;;1.10;;
20423;SDS011;10371;49.042;8.002;2023-01-13T07:01:36;1.33;;;1.20;;
20423;SDS011;10371;49.042;8.002;2023-01-13T07:02:36;1.30;;;1.10;;